createdAt,value
2022-11-02T05:17:28.599Z,100597.03
2022-11-02T05:19:56.243Z,100595.38
2022-11-02T05:22:22.791Z,100595.25
2022-11-02T05:24:49.721Z,100608.31
2022-11-02T05:27:16.288Z,100612.09
2022-11-02T05:29:44.743Z,100608.53
2022-11-02T05:32:11.259Z,100611.25
2022-11-02T05:34:39.072Z,100613.84
2022-11-02T05:37:07.606Z,100618.22
2022-11-02T05:39:34.117Z,100615.75
2022-11-02T05:42:01.153Z,100617.50
2022-11-02T05:44:27.684Z,100605.19
2022-11-02T05:46:54.343Z,100610.53
2022-11-02T05:49:20.859Z,100617.78
2022-11-02T05:51:49.169Z,100621.19
2022-11-02T05:54:15.878Z,100620.28
2022-11-02T05:56:43.371Z,100627.50
2022-11-02T05:59:10.803Z,100623.88
2022-11-02T06:01:37.616Z,100626.63
2022-11-02T06:04:04.295Z,100624.88
2022-11-02T06:06:31.103Z,100626.66
2022-11-02T06:08:58.910Z,100638.88
2022-11-02T06:11:26.982Z,100644.09
2022-11-02T06:13:53.567Z,100638.88
2022-11-02T06:16:23.193Z,100645.78
2022-11-02T06:18:50.118Z,100645.84
2022-11-02T06:21:16.577Z,100655.31
2022-11-02T06:23:43.211Z,100654.59
2022-11-02T06:26:10.903Z,100664.09
2022-11-02T06:28:37.405Z,100659.84
2022-11-02T06:31:10.366Z,100655.41
2022-11-02T06:33:36.829Z,100660.56
2022-11-02T06:36:03.521Z,100663.19
2022-11-02T06:38:29.950Z,100659.66
2022-11-02T06:41:06.436Z,100670.97
2022-11-02T06:43:34.371Z,100678.03
2022-11-02T06:46:02.917Z,100680.63
2022-11-02T06:48:34.675Z,100684.16
2022-11-02T06:51:03.298Z,100687.63
2022-11-02T06:53:29.766Z,100691.06
2022-11-02T06:55:57.349Z,100692.91
2022-11-02T06:58:24.468Z,100694.78
2022-11-02T07:00:56.536Z,100691.41
2022-11-02T07:03:23.554Z,100694.84
2022-11-02T07:05:52.046Z,100704.41
2022-11-02T07:08:19.761Z,100706.22
2022-11-02T07:10:46.695Z,100718.31
2022-11-02T07:13:13.308Z,100719.19
2022-11-02T07:15:40.020Z,100719.13
2022-11-02T07:18:12.715Z,100723.47
2022-11-02T07:20:39.192Z,100728.66
2022-11-02T07:23:06.396Z,100726.84
2022-11-02T07:25:33.445Z,100728.50
2022-11-02T07:28:01.625Z,100728.47
2022-11-02T07:30:29.710Z,100736.25
2022-11-02T07:32:56.292Z,100734.38
2022-11-02T07:35:23.118Z,100735.06
2022-11-02T07:37:57.909Z,100732.44
2022-11-02T07:40:24.426Z,100741.16
2022-11-02T07:42:50.967Z,100730.78
2022-11-02T07:45:21.717Z,100743.00
2022-11-02T07:47:49.259Z,100743.84
2022-11-02T07:50:18.802Z,100743.00
2022-11-02T07:52:54.590Z,100744.78
2022-11-02T07:55:27.311Z,100754.22
2022-11-02T07:58:01.926Z,100757.66
2022-11-02T08:00:34.040Z,100761.09
2022-11-02T08:03:02.687Z,100756.75
2022-11-02T08:05:31.010Z,100761.81
2022-11-02T08:08:01.982Z,100769.66
2022-11-02T08:10:32.828Z,100773.06
2022-11-02T08:13:32.716Z,100776.41
2022-11-02T08:15:59.553Z,100777.16
2022-11-02T08:18:28.229Z,100784.66
2022-11-02T08:20:56.616Z,100784.50
2022-11-02T08:23:23.569Z,100787.00
2022-11-02T08:25:51.273Z,100785.81
2022-11-02T08:28:24.549Z,100787.31
2022-11-02T08:30:51.533Z,100794.84
2022-11-02T08:33:19.683Z,100798.13
2022-11-02T08:35:47.444Z,100791.19
2022-11-02T08:38:14.583Z,100788.66
2022-11-02T08:40:41.827Z,100790.56
2022-11-02T08:43:11.144Z,100787.88
2022-11-02T08:46:12.420Z,100796.25
2022-11-02T08:48:27.697Z,100800.66
2022-11-02T08:50:55.628Z,100795.94
2022-11-02T08:53:22.236Z,100788.47
2022-11-02T08:55:48.755Z,100783.84
2022-11-02T08:58:15.196Z,100775.84
2022-11-02T09:00:41.658Z,100781.59
2022-11-02T09:03:10.673Z,100784.81
2022-11-02T09:05:44.502Z,100782.00
2022-11-02T09:08:15.019Z,100785.09
2022-11-02T09:10:41.572Z,100787.50
2022-11-02T09:13:11.632Z,100793.50
2022-11-02T09:15:38.854Z,100788.97
2022-11-02T09:18:31.930Z,100792.53
2022-11-02T09:21:06.376Z,100789.00
2022-11-02T09:23:33.068Z,100788.41
2022-11-02T09:26:00.199Z,100792.28
2022-11-02T09:28:27.814Z,100790.47
2022-11-02T09:30:54.277Z,100789.50
2022-11-02T09:33:20.930Z,100792.41
2022-11-02T09:35:48.988Z,100790.53
2022-11-02T09:38:18.215Z,100790.53
2022-11-02T09:40:59.832Z,100796.19
2022-11-02T09:43:53.742Z,100802.72
2022-11-02T09:46:43.352Z,100792.34
2022-11-02T09:49:15.145Z,100798.53
2022-11-02T09:51:50.076Z,100793.69
2022-11-02T09:54:22.191Z,100794.91
2022-11-02T09:56:50.694Z,100802.03
2022-11-02T09:59:21.962Z,100799.47
2022-11-02T10:02:05.490Z,100797.84
2022-11-02T10:04:53.548Z,100808.47
2022-11-02T10:07:54.288Z,100818.00
2022-11-02T10:10:53.681Z,100833.06
2022-11-02T10:13:35.043Z,100860.38
2022-11-02T10:16:12.017Z,100823.53
2022-11-02T10:18:41.804Z,100818.25
2022-11-02T10:21:14.461Z,100827.66
2022-11-02T10:24:11.259Z,100836.22
2022-11-02T10:26:43.215Z,100829.56
2022-11-02T10:29:18.161Z,100825.63
2022-11-02T10:31:48.936Z,100832.19
2022-11-02T10:34:28.782Z,100820.63
2022-11-02T10:37:23.141Z,100830.13
2022-11-02T10:40:15.586Z,100832.41
2022-11-02T10:43:03.682Z,100834.50
2022-11-02T10:46:12.772Z,100840.63
2022-11-02T10:48:50.756Z,100816.16
2022-11-02T10:51:21.793Z,100819.78
2022-11-02T10:53:50.764Z,100823.56
2022-11-02T10:56:29.350Z,100827.16
2022-11-02T10:59:12.612Z,100832.28
2022-11-02T11:02:04.037Z,100821.00
2022-11-02T11:04:33.557Z,100812.47
2022-11-02T11:07:27.696Z,100832.13
2022-11-02T11:09:57.962Z,100821.59
2022-11-02T11:12:34.013Z,100828.00
2022-11-02T11:20:39.796Z,100817.28
2022-11-02T11:23:21.139Z,100812.25
2022-11-02T11:26:00.100Z,100812.00
2022-11-02T11:28:52.212Z,100803.47
2022-11-02T11:31:19.521Z,100802.25
2022-11-02T11:33:54.790Z,100795.09
2022-11-02T11:36:31.826Z,100798.59
2022-11-02T11:39:08.121Z,100798.91
2022-11-02T11:41:39.736Z,100797.28
2022-11-02T11:44:13.602Z,100807.66
2022-11-02T11:46:50.837Z,100806.84
2022-11-02T11:52:31.601Z,100812.28
2022-11-02T11:55:24.025Z,100801.19
2022-11-02T11:58:14.657Z,100791.94
2022-11-02T12:00:43.860Z,100801.69
2022-11-02T12:03:12.954Z,100788.22
2022-11-02T12:05:52.281Z,100792.31
2022-11-02T12:09:01.572Z,100790.16
2022-11-02T12:11:42.378Z,100782.09
2022-11-02T12:14:29.648Z,100773.69
2022-11-02T12:17:23.308Z,100773.78
2022-11-02T12:20:14.295Z,100767.25
2022-11-02T12:22:54.384Z,100776.63
2022-11-02T12:25:48.672Z,100786.97
2022-11-02T12:28:28.930Z,100776.91
2022-11-02T12:31:19.074Z,100774.94
2022-11-02T12:33:57.243Z,100783.34
2022-11-02T12:36:35.074Z,100777.75
2022-11-02T12:39:09.116Z,100773.75
2022-11-02T12:41:55.397Z,100775.03
2022-11-02T12:44:52.712Z,100787.13
2022-11-02T12:47:31.292Z,100791.63
2022-11-02T12:50:29.144Z,100784.88
2022-11-02T12:53:18.439Z,100765.91
2022-11-02T12:55:50.154Z,100763.38
2022-11-02T12:58:23.272Z,100757.06
2022-11-02T13:00:57.039Z,100756.22
2022-11-02T13:03:57.211Z,100739.56
2022-11-02T13:06:33.665Z,100746.00
2022-11-02T13:09:15.354Z,100754.41
2022-11-02T13:11:56.409Z,100739.72
2022-11-02T13:14:27.105Z,100743.94
2022-11-02T13:17:05.289Z,100758.06
2022-11-02T13:19:44.487Z,100756.63
2022-11-02T13:22:14.256Z,100758.34
2022-11-02T13:24:54.063Z,100750.50
2022-11-02T13:27:36.974Z,100749.19
2022-11-02T13:30:15.945Z,100744.22
2022-11-02T13:33:10.499Z,100736.81
2022-11-02T13:35:43.422Z,100732.72
2022-11-02T13:38:12.876Z,100733.38
2022-11-02T13:40:54.326Z,100723.38
2022-11-02T13:43:28.494Z,100731.72
2022-11-02T13:46:36.837Z,100736.31
2022-11-02T13:49:15.831Z,100721.41
2022-11-02T13:51:56.935Z,100722.53
2022-11-02T13:54:32.484Z,100726.94
2022-11-02T13:56:59.348Z,100733.34
2022-11-02T13:59:32.963Z,100732.41
2022-11-02T14:02:12.596Z,100733.13
2022-11-02T14:04:41.833Z,100738.91
2022-11-02T14:07:35.786Z,100739.63
2022-11-02T14:10:15.219Z,100736.13
2022-11-02T14:12:48.806Z,100738.88
2022-11-02T14:15:15.361Z,100741.41
2022-11-02T14:17:53.006Z,100739.09
2022-11-02T14:20:39.069Z,100740.34
2022-11-02T14:23:14.749Z,100737.44
2022-11-02T14:25:58.090Z,100745.38
2022-11-02T14:28:41.404Z,100752.47
2022-11-02T14:31:17.326Z,100745.59
2022-11-02T14:34:15.057Z,100743.50
2022-11-02T14:37:11.609Z,100742.25
2022-11-02T14:40:14.078Z,100739.94
2022-11-02T14:43:13.136Z,100739.44
2022-11-02T14:45:58.311Z,100736.16
2022-11-02T14:48:31.001Z,100735.50
2022-11-02T14:51:17.283Z,100736.78
2022-11-02T14:53:45.064Z,100736.06
2022-11-02T14:56:11.552Z,100732.47
2022-11-02T14:58:48.207Z,100730.72
2022-11-02T15:01:15.318Z,100734.72
2022-11-02T15:03:42.749Z,100739.72
2022-11-02T15:06:25.474Z,100738.03
2022-11-02T15:09:04.070Z,100734.78
2022-11-02T15:11:50.831Z,100735.09
2022-11-02T15:14:35.571Z,100730.41
2022-11-02T15:17:03.335Z,100733.06
2022-11-02T15:19:43.819Z,100733.47
2022-11-02T15:22:31.256Z,100725.00
2022-11-02T15:25:25.893Z,100728.59
2022-11-02T15:28:05.850Z,100722.19
2022-11-02T15:30:38.024Z,100716.09
2022-11-02T15:33:06.737Z,100723.63
2022-11-02T15:35:36.983Z,100735.84
2022-11-02T15:38:27.912Z,100732.16
2022-11-02T15:41:17.666Z,100734.75
2022-11-02T15:44:22.289Z,100735.91
2022-11-02T15:47:08.929Z,100731.94
2022-11-02T15:50:10.047Z,100728.00
2022-11-02T15:53:21.186Z,100728.41
2022-11-02T15:55:47.289Z,100715.81
2022-11-02T15:58:36.675Z,100723.75
2022-11-02T16:01:15.324Z,100728.88
2022-11-02T16:03:58.072Z,100731.03
2022-11-02T16:06:31.588Z,100717.88
2022-11-02T16:09:00.552Z,100718.47
2022-11-02T16:11:27.513Z,100709.06
2022-11-02T16:14:15.386Z,100703.59
2022-11-02T16:16:49.659Z,100704.50
2022-11-02T16:19:20.973Z,100703.94
2022-11-02T16:21:49.594Z,100701.63
2022-11-02T16:24:19.563Z,100698.16
2022-11-02T16:26:46.759Z,100707.63
2022-11-02T16:29:30.286Z,100705.94
2022-11-02T16:32:02.572Z,100704.47
2022-11-02T16:34:33.633Z,100703.06
2022-11-02T16:37:06.024Z,100710.50
2022-11-02T16:39:39.678Z,100707.81
2022-11-02T16:42:22.016Z,100705.53
2022-11-02T16:45:05.100Z,100701.00
2022-11-02T16:47:39.185Z,100700.16
2022-11-02T16:50:19.934Z,100697.75
2022-11-02T16:52:55.229Z,100702.34
2022-11-02T16:55:38.791Z,100713.81
2022-11-02T16:58:08.218Z,100708.19
2022-11-02T17:00:35.760Z,100709.31
2022-11-02T17:03:14.250Z,100704.31
2022-11-02T17:05:42.723Z,100703.91
2022-11-02T17:08:27.153Z,100691.44
2022-11-02T17:10:59.316Z,100695.88
2022-11-02T17:13:37.399Z,100700.50
2022-11-02T17:16:10.313Z,100702.34
2022-11-02T17:18:39.995Z,100690.47
2022-11-02T17:21:12.503Z,100695.00
2022-11-02T17:23:42.022Z,100693.34
2022-11-02T17:26:14.773Z,100696.97
2022-11-02T17:28:44.786Z,100701.41
2022-11-02T17:31:41.027Z,100710.44
2022-11-02T17:34:12.315Z,100710.66
2022-11-02T17:36:43.320Z,100704.75
2022-11-02T17:39:15.247Z,100701.13
2022-11-02T17:42:01.986Z,100707.47
2022-11-02T17:44:28.457Z,100706.75
2022-11-02T17:46:57.195Z,100703.38
2022-11-02T17:49:25.558Z,100706.97
2022-11-02T17:51:52.140Z,100703.88
2022-11-02T17:54:18.650Z,100704.16
2022-11-02T17:56:45.105Z,100707.69
2022-11-02T17:59:11.497Z,100706.94
2022-11-02T18:01:40.680Z,100700.72
2022-11-02T18:04:07.194Z,100707.09
2022-11-02T18:06:33.686Z,100702.75
2022-11-02T18:09:13.840Z,100698.53
2022-11-02T18:11:41.490Z,100703.94
2022-11-02T18:14:13.858Z,100705.88
2022-11-02T18:16:40.289Z,100704.22
2022-11-02T18:19:06.761Z,100696.50
2022-11-02T18:21:33.841Z,100698.44
2022-11-02T18:24:00.241Z,100700.41
2022-11-02T18:26:26.666Z,100698.69
2022-11-02T18:28:53.065Z,100704.09
2022-11-02T18:31:19.514Z,100697.94
2022-11-02T18:33:46.034Z,100702.59
2022-11-02T18:36:12.523Z,100702.69
2022-11-02T18:38:39.031Z,100707.63
2022-11-02T18:41:27.076Z,100697.72
2022-11-02T18:44:00.531Z,100696.06
2022-11-02T18:46:30.696Z,100690.63
2022-11-02T18:48:58.189Z,100687.16
2022-11-02T18:51:25.042Z,100685.38
2022-11-02T18:53:56.767Z,100694.31
2022-11-02T18:56:23.747Z,100685.63
2022-11-02T18:58:51.466Z,100681.50
2022-11-02T19:01:22.464Z,100692.94
2022-11-02T19:03:57.130Z,100685.06
2022-11-02T19:06:42.713Z,100683.25
2022-11-02T19:09:21.092Z,100689.59
2022-11-02T19:12:00.400Z,100676.59
2022-11-02T19:14:29.854Z,100680.94
2022-11-02T19:16:56.486Z,100674.00
2022-11-02T19:19:23.326Z,100671.50
2022-11-02T19:21:50.251Z,100669.69
2022-11-02T19:24:16.903Z,100665.53
2022-11-02T19:26:43.433Z,100655.94
2022-11-02T19:29:10.104Z,100664.63
2022-11-02T19:31:36.744Z,100661.13
2022-11-02T19:34:13.638Z,100668.34
2022-11-02T19:36:43.365Z,100661.34
2022-11-02T19:39:10.299Z,100671.34
2022-11-02T19:41:38.521Z,100650.34
2022-11-02T19:44:05.756Z,100646.94
2022-11-02T19:46:32.415Z,100641.63
2022-11-02T19:48:59.057Z,100651.31
2022-11-02T19:51:30.186Z,100639.06
2022-11-02T19:53:59.198Z,100648.78
2022-11-02T19:56:27.610Z,100650.47
2022-11-02T19:58:54.988Z,100654.00
2022-11-02T20:01:30.135Z,100651.41
2022-11-02T20:03:57.500Z,100651.50
2022-11-02T20:06:34.533Z,100654.91
2022-11-02T20:09:01.942Z,100644.50
2022-11-02T20:11:28.706Z,100644.59
2022-11-02T20:14:00.404Z,100646.34
2022-11-02T20:16:27.363Z,100645.44
2022-11-02T20:18:55.395Z,100641.19
2022-11-02T20:21:32.463Z,100641.25
2022-11-02T20:24:02.259Z,100644.66
2022-11-02T20:26:37.683Z,100647.38
2022-11-02T20:29:05.902Z,100643.78
2022-11-02T20:31:37.276Z,100635.91
2022-11-02T20:34:05.319Z,100640.19
2022-11-02T20:36:32.090Z,100637.75
2022-11-02T20:38:59.324Z,100639.59
2022-11-02T20:41:28.729Z,100637.91
2022-11-02T20:43:57.379Z,100635.28
2022-11-02T20:46:37.537Z,100627.31
2022-11-02T20:49:20.030Z,100631.75
2022-11-02T20:51:51.621Z,100630.84
2022-11-02T20:54:19.502Z,100628.34
2022-11-02T20:56:46.474Z,100627.47
2022-11-02T20:59:12.964Z,100623.25
2022-11-02T21:01:39.591Z,100620.66
2022-11-02T21:04:06.338Z,100623.28
2022-11-02T21:06:33.301Z,100625.84
2022-11-02T21:09:00.552Z,100632.06
2022-11-02T21:11:53.121Z,100626.88
2022-11-02T21:14:19.587Z,100618.13
2022-11-02T21:16:46.071Z,100613.72
2022-11-02T21:19:12.523Z,100614.59
2022-11-02T21:21:39.142Z,100617.25
2022-11-02T21:24:05.848Z,100611.19
2022-11-02T21:26:56.156Z,100612.03
2022-11-02T21:29:22.681Z,100612.91
2022-11-02T21:31:49.117Z,100609.44
2022-11-02T21:34:16.214Z,100604.28
2022-11-02T21:36:42.637Z,100601.66
2022-11-02T21:39:09.114Z,100601.66
2022-11-02T21:41:38.465Z,100604.22
2022-11-02T21:44:06.167Z,100603.31
2022-11-02T21:46:33.762Z,100591.97
2022-11-02T21:49:00.567Z,100599.81
2022-11-02T21:51:27.108Z,100603.38
2022-11-02T21:53:53.589Z,100596.34
2022-11-02T21:56:22.565Z,100598.91
2022-11-02T21:58:49.269Z,100600.69
2022-11-02T22:01:40.009Z,100599.00
2022-11-02T22:04:07.990Z,100584.16
2022-11-02T22:06:37.412Z,100584.28
2022-11-02T22:09:06.937Z,100583.41
2022-11-02T22:11:33.556Z,100581.56
2022-11-02T22:14:01.111Z,100585.06
2022-11-02T22:16:34.692Z,100572.88
2022-11-02T22:19:04.456Z,100575.34
2022-11-02T22:21:33.877Z,100570.03
2022-11-02T22:24:01.153Z,100575.19
2022-11-02T22:26:29.592Z,100569.06
2022-11-02T22:29:02.461Z,100558.63
2022-11-02T22:31:31.411Z,100565.63
2022-11-02T22:33:59.869Z,100564.78
2022-11-02T22:36:29.327Z,100563.88
2022-11-02T22:38:57.760Z,100564.63
2022-11-02T22:41:29.438Z,100556.75
2022-11-02T22:44:03.957Z,100553.22
2022-11-02T22:46:35.137Z,100556.75
2022-11-02T22:49:02.766Z,100555.03
2022-11-02T22:51:31.458Z,100548.91
2022-11-02T22:54:01.818Z,100532.38
2022-11-02T22:56:28.845Z,100528.94
2022-11-02T22:58:59.046Z,100522.94
